Pagrindinis puslapis
METAR-TAF:

METAR-TAF

Oro uostai :

Maršalo Salų tarptautinis oro uostas

Madžūras, Maršalo salos

platuma: 07-04N, ilguma: 171-17E, Aukštis: 2 m

Dabartinis oras

Ataskaita buvo paskelbta 1 valandą ir 48 minutes, ne 23:55 UTC
Vėjas 10 kt iš Vakarų/Pietvakarių
Temperatūra 28°C
Drėgmė 84%
Slėgis 1013 hPa
Matomumas: 24.1 km
Išsisklaidę debesys ne aukštis 1400 ft
Su prošvaistėmis ne aukštis 4500 ft
Apsiniaukę ne aukštis 12000 ft

METAR: PKMJ 252355Z 25010KT 15SM SCT014 BKN045 OVC120 28/25 A2992 RMK LAST

Laikas: 13:43 (01:43 UTC)

Prognozė

Ataskaita buvo paskelbta 2 valandos ir 16 minutes, ne 23:27 UTC
Prognozė galioja nuo 27 metu 00 UTC su 27 metu 24 UTC
Vėjas 10 kt iš Rytų
Matomumas: 10 km
Su prošvaistėmis ne aukštis 3500 ft
Apsiniaukę ne aukštis 13000 ft
Liūtis kaimynystėje
Laikinai
nuo 27 metu 00 UTC su 27 metu 04 UTC
Vėjas 12 kt iš Rytų/Šiaurės Rytų
Matomumas: 6.4 km
Su prošvaistėmis ne aukštis 2000 ft
lietus

TAF: PKMJ 262327Z 2700/2724 08010KT P6SM VCSH BKN035 OVC130 TEMPO 2700/2704 06012KT 4SM -SHRA BKN020

Orai ataskaitas ir orų prognozės (METAR, TAF).

turimą stotys yra geltonos ir raudonos taškus žemėlapyje.

Perkelti pele per norėdami pamatyti stoties vardą.

Tada spustelėkite, norėdami matyti oro stebėjimo ir prognozės.

Norėdami pakeisti žemėlapį: spustelėkite ant žalios mygtukų su juodo kryžiaus žemyn,; žalią mygtuką su brūkšneliu, jei norite nutolinti; arba žalių rodyklių gretimoms žemėlapius.


METAR-TAF: